sensor_id;sensor_type;location;lat;lon;timestamp;P1;durP1;ratioP1;P2;durP2;ratioP2
18576;SDS011;9418;52.694;13.294;2022-11-21T00:00:07;16.90;;;12.77;;
18576;SDS011;9418;52.694;13.294;2022-11-21T00:02:34;18.90;;;15.40;;
18576;SDS011;9418;52.694;13.294;2022-11-21T00:05:01;15.50;;;13.83;;
18576;SDS011;9418;52.694;13.294;2022-11-21T00:07:27;11.77;;;10.57;;
18576;SDS011;9418;52.694;13.294;2022-11-21T00:09:54;13.20;;;10.53;;
18576;SDS011;9418;52.694;13.294;2022-11-21T00:12:21;13.63;;;11.50;;
18576;SDS011;9418;52.694;13.294;2022-11-21T00:14:47;11.77;;;10.57;;
18576;SDS011;9418;52.694;13.294;2022-11-21T00:17:15;12.07;;;10.80;;
18576;SDS011;9418;52.694;13.294;2022-11-21T00:19:42;11.07;;;9.97;;
18576;SDS011;9418;52.694;13.294;2022-11-21T00:22:09;11.23;;;10.03;;
18576;SDS011;9418;52.694;13.294;2022-11-21T00:24:36;12.27;;;10.97;;
18576;SDS011;9418;52.694;13.294;2022-11-21T00:27:03;12.97;;;10.80;;
18576;SDS011;9418;52.694;13.294;2022-11-21T00:29:29;34.40;;;21.90;;
18576;SDS011;9418;52.694;13.294;2022-11-21T00:31:56;31.33;;;20.30;;
18576;SDS011;9418;52.694;13.294;2022-11-21T00:34:24;17.97;;;14.17;;
18576;SDS011;9418;52.694;13.294;2022-11-21T00:36:50;31.20;;;20.50;;
18576;SDS011;9418;52.694;13.294;2022-11-21T00:39:17;27.00;;;18.07;;
18576;SDS011;9418;52.694;13.294;2022-11-21T00:41:44;21.70;;;15.33;;
18576;SDS011;9418;52.694;13.294;2022-11-21T00:44:10;17.70;;;14.23;;
18576;SDS011;9418;52.694;13.294;2022-11-21T00:46:37;16.20;;;13.10;;
18576;SDS011;9418;52.694;13.294;2022-11-21T00:49:03;16.97;;;13.47;;
18576;SDS011;9418;52.694;13.294;2022-11-21T00:51:31;17.27;;;12.27;;
18576;SDS011;9418;52.694;13.294;2022-11-21T00:53:58;13.93;;;11.00;;
18576;SDS011;9418;52.694;13.294;2022-11-21T00:56:24;12.77;;;10.63;;
18576;SDS011;9418;52.694;13.294;2022-11-21T00:58:51;12.47;;;11.17;;
18576;SDS011;9418;52.694;13.294;2022-11-21T01:01:17;10.17;;;9.10;;
18576;SDS011;9418;52.694;13.294;2022-11-21T01:03:44;12.17;;;10.87;;
18576;SDS011;9418;52.694;13.294;2022-11-21T01:06:11;12.20;;;11.00;;
18576;SDS011;9418;52.694;13.294;2022-11-21T01:08:41;11.87;;;10.20;;
18576;SDS011;9418;52.694;13.294;2022-11-21T01:11:09;11.13;;;9.97;;
18576;SDS011;9418;52.694;13.294;2022-11-21T01:13:37;17.90;;;10.27;;
18576;SDS011;9418;52.694;13.294;2022-11-21T01:16:04;11.10;;;9.90;;
18576;SDS011;9418;52.694;13.294;2022-11-21T01:18:32;10.70;;;9.60;;
18576;SDS011;9418;52.694;13.294;2022-11-21T01:20:59;12.00;;;10.80;;
18576;SDS011;9418;52.694;13.294;2022-11-21T01:23:26;10.90;;;9.40;;
18576;SDS011;9418;52.694;13.294;2022-11-21T01:25:54;11.30;;;10.10;;
18576;SDS011;9418;52.694;13.294;2022-11-21T01:28:26;10.10;;;8.60;;
18576;SDS011;9418;52.694;13.294;2022-11-21T01:30:53;12.20;;;9.30;;
18576;SDS011;9418;52.694;13.294;2022-11-21T01:33:19;10.63;;;9.50;;
18576;SDS011;9418;52.694;13.294;2022-11-21T01:35:46;11.70;;;10.30;;
18576;SDS011;9418;52.694;13.294;2022-11-21T01:38:12;15.77;;;12.37;;
18576;SDS011;9418;52.694;13.294;2022-11-21T01:40:39;13.40;;;9.77;;
18576;SDS011;9418;52.694;13.294;2022-11-21T01:43:10;10.80;;;9.40;;
18576;SDS011;9418;52.694;13.294;2022-11-21T01:45:52;10.07;;;8.97;;
18576;SDS011;9418;52.694;13.294;2022-11-21T01:48:21;13.30;;;10.07;;
18576;SDS011;9418;52.694;13.294;2022-11-21T01:50:53;11.20;;;9.97;;
18576;SDS011;9418;52.694;13.294;2022-11-21T01:53:21;10.83;;;9.17;;
18576;SDS011;9418;52.694;13.294;2022-11-21T01:55:48;12.10;;;10.17;;
18576;SDS011;9418;52.694;13.294;2022-11-21T01:58:16;11.03;;;9.83;;
18576;SDS011;9418;52.694;13.294;2022-11-21T02:00:43;11.63;;;9.73;;
18576;SDS011;9418;52.694;13.294;2022-11-21T02:03:12;11.20;;;10.10;;
18576;SDS011;9418;52.694;13.294;2022-11-21T02:05:42;12.77;;;9.90;;
18576;SDS011;9418;52.694;13.294;2022-11-21T02:08:09;10.90;;;9.80;;
18576;SDS011;9418;52.694;13.294;2022-11-21T02:10:40;12.33;;;10.33;;
18576;SDS011;9418;52.694;13.294;2022-11-21T02:13:12;12.63;;;10.50;;
18576;SDS011;9418;52.694;13.294;2022-11-21T02:15:40;11.47;;;9.77;;
18576;SDS011;9418;52.694;13.294;2022-11-21T02:18:07;12.00;;;10.13;;
18576;SDS011;9418;52.694;13.294;2022-11-21T02:20:34;12.60;;;11.07;;
18576;SDS011;9418;52.694;13.294;2022-11-21T02:23:03;10.90;;;9.80;;
18576;SDS011;9418;52.694;13.294;2022-11-21T02:25:37;13.20;;;10.33;;
18576;SDS011;9418;52.694;13.294;2022-11-21T02:28:07;13.10;;;11.13;;
18576;SDS011;9418;52.694;13.294;2022-11-21T02:30:38;12.47;;;10.43;;
18576;SDS011;9418;52.694;13.294;2022-11-21T02:33:05;12.97;;;9.93;;
18576;SDS011;9418;52.694;13.294;2022-11-21T02:35:32;11.70;;;10.50;;
18576;SDS011;9418;52.694;13.294;2022-11-21T02:38:00;12.83;;;11.20;;
18576;SDS011;9418;52.694;13.294;2022-11-21T02:40:30;12.67;;;11.30;;
18576;SDS011;9418;52.694;13.294;2022-11-21T02:43:03;12.83;;;10.90;;
18576;SDS011;9418;52.694;13.294;2022-11-21T02:45:36;14.10;;;11.20;;
18576;SDS011;9418;52.694;13.294;2022-11-21T02:48:05;14.27;;;10.70;;
18576;SDS011;9418;52.694;13.294;2022-11-21T02:50:32;14.43;;;10.23;;
18576;SDS011;9418;52.694;13.294;2022-11-21T02:53:00;14.63;;;10.83;;
18576;SDS011;9418;52.694;13.294;2022-11-21T02:55:27;17.47;;;10.07;;
18576;SDS011;9418;52.694;13.294;2022-11-21T02:57:54;14.27;;;10.87;;
18576;SDS011;9418;52.694;13.294;2022-11-21T03:00:22;11.73;;;10.60;;
18576;SDS011;9418;52.694;13.294;2022-11-21T03:02:49;11.57;;;10.10;;
18576;SDS011;9418;52.694;13.294;2022-11-21T03:05:17;13.53;;;11.47;;
18576;SDS011;9418;52.694;13.294;2022-11-21T03:07:45;12.20;;;10.93;;
18576;SDS011;9418;52.694;13.294;2022-11-21T03:10:12;12.60;;;11.27;;
18576;SDS011;9418;52.694;13.294;2022-11-21T03:12:40;13.37;;;11.57;;
18576;SDS011;9418;52.694;13.294;2022-11-21T03:15:09;12.90;;;11.23;;
18576;SDS011;9418;52.694;13.294;2022-11-21T03:17:38;11.93;;;10.70;;
18576;SDS011;9418;52.694;13.294;2022-11-21T03:20:05;14.10;;;10.33;;
18576;SDS011;9418;52.694;13.294;2022-11-21T03:22:33;11.60;;;10.50;;
18576;SDS011;9418;52.694;13.294;2022-11-21T03:24:59;14.80;;;11.10;;
18576;SDS011;9418;52.694;13.294;2022-11-21T03:27:26;12.40;;;11.10;;
18576;SDS011;9418;52.694;13.294;2022-11-21T03:29:53;15.30;;;12.83;;
18576;SDS011;9418;52.694;13.294;2022-11-21T03:32:19;15.27;;;12.57;;
18576;SDS011;9418;52.694;13.294;2022-11-21T03:34:47;15.90;;;12.67;;
18576;SDS011;9418;52.694;13.294;2022-11-21T03:37:14;16.03;;;12.20;;
18576;SDS011;9418;52.694;13.294;2022-11-21T03:39:40;12.50;;;11.10;;
18576;SDS011;9418;52.694;13.294;2022-11-21T03:42:07;14.00;;;10.93;;
18576;SDS011;9418;52.694;13.294;2022-11-21T03:44:34;11.40;;;10.20;;
18576;SDS011;9418;52.694;13.294;2022-11-21T03:47:00;12.10;;;10.80;;
18576;SDS011;9418;52.694;13.294;2022-11-21T03:49:27;16.00;;;11.77;;
18576;SDS011;9418;52.694;13.294;2022-11-21T03:51:55;12.40;;;10.93;;
18576;SDS011;9418;52.694;13.294;2022-11-21T03:54:21;15.77;;;12.13;;
18576;SDS011;9418;52.694;13.294;2022-11-21T03:56:48;13.30;;;11.70;;
18576;SDS011;9418;52.694;13.294;2022-11-21T03:59:15;15.07;;;12.10;;
18576;SDS011;9418;52.694;13.294;2022-11-21T04:01:41;14.17;;;11.37;;
18576;SDS011;9418;52.694;13.294;2022-11-21T04:04:08;12.20;;;10.90;;
18576;SDS011;9418;52.694;13.294;2022-11-21T04:06:34;16.77;;;11.00;;
18576;SDS011;9418;52.694;13.294;2022-11-21T04:09:02;12.87;;;11.47;;
18576;SDS011;9418;52.694;13.294;2022-11-21T04:11:29;13.53;;;12.10;;
18576;SDS011;9418;52.694;13.294;2022-11-21T04:13:55;11.90;;;10.33;;
18576;SDS011;9418;52.694;13.294;2022-11-21T04:16:22;12.63;;;11.33;;
18576;SDS011;9418;52.694;13.294;2022-11-21T04:18:49;13.07;;;11.67;;
18576;SDS011;9418;52.694;13.294;2022-11-21T04:21:15;14.50;;;12.23;;
18576;SDS011;9418;52.694;13.294;2022-11-21T04:23:42;12.43;;;11.23;;
18576;SDS011;9418;52.694;13.294;2022-11-21T04:26:10;13.33;;;11.90;;
18576;SDS011;9418;52.694;13.294;2022-11-21T04:28:36;12.70;;;10.80;;
18576;SDS011;9418;52.694;13.294;2022-11-21T04:31:03;14.30;;;12.20;;
18576;SDS011;9418;52.694;13.294;2022-11-21T04:33:30;15.57;;;12.60;;
18576;SDS011;9418;52.694;13.294;2022-11-21T04:35:57;15.30;;;12.50;;
18576;SDS011;9418;52.694;13.294;2022-11-21T04:38:24;14.60;;;11.47;;
18576;SDS011;9418;52.694;13.294;2022-11-21T04:40:51;20.47;;;12.30;;
18576;SDS011;9418;52.694;13.294;2022-11-21T04:43:19;16.20;;;12.77;;
18576;SDS011;9418;52.694;13.294;2022-11-21T04:45:45;14.60;;;12.50;;
18576;SDS011;9418;52.694;13.294;2022-11-21T04:48:12;18.63;;;12.80;;
18576;SDS011;9418;52.694;13.294;2022-11-21T04:50:38;14.47;;;12.97;;
18576;SDS011;9418;52.694;13.294;2022-11-21T04:53:05;13.17;;;11.80;;
18576;SDS011;9418;52.694;13.294;2022-11-21T04:55:31;15.30;;;11.43;;
18576;SDS011;9418;52.694;13.294;2022-11-21T04:57:58;13.63;;;11.87;;
18576;SDS011;9418;52.694;13.294;2022-11-21T05:00:26;15.33;;;12.53;;
18576;SDS011;9418;52.694;13.294;2022-11-21T05:02:53;12.30;;;11.00;;
18576;SDS011;9418;52.694;13.294;2022-11-21T05:05:19;14.63;;;11.90;;
18576;SDS011;9418;52.694;13.294;2022-11-21T05:07:46;13.27;;;11.00;;
18576;SDS011;9418;52.694;13.294;2022-11-21T05:10:12;15.70;;;12.63;;
18576;SDS011;9418;52.694;13.294;2022-11-21T05:12:39;12.90;;;11.33;;
18576;SDS011;9418;52.694;13.294;2022-11-21T05:15:23;17.03;;;12.73;;
18576;SDS011;9418;52.694;13.294;2022-11-21T05:17:51;15.17;;;13.60;;
18576;SDS011;9418;52.694;13.294;2022-11-21T05:20:18;13.13;;;11.83;;
18576;SDS011;9418;52.694;13.294;2022-11-21T05:22:44;17.67;;;12.83;;
18576;SDS011;9418;52.694;13.294;2022-11-21T05:25:16;16.00;;;13.10;;
18576;SDS011;9418;52.694;13.294;2022-11-21T05:27:43;16.10;;;13.20;;
18576;SDS011;9418;52.694;13.294;2022-11-21T05:30:10;21.80;;;16.57;;
18576;SDS011;9418;52.694;13.294;2022-11-21T05:32:37;18.03;;;14.87;;
18576;SDS011;9418;52.694;13.294;2022-11-21T05:35:05;15.33;;;13.70;;
18576;SDS011;9418;52.694;13.294;2022-11-21T05:37:32;18.90;;;16.50;;
18576;SDS011;9418;52.694;13.294;2022-11-21T05:39:59;16.57;;;14.67;;
18576;SDS011;9418;52.694;13.294;2022-11-21T05:42:25;15.17;;;13.57;;
18576;SDS011;9418;52.694;13.294;2022-11-21T05:45:06;18.20;;;15.40;;
18576;SDS011;9418;52.694;13.294;2022-11-21T05:47:34;15.77;;;13.77;;
18576;SDS011;9418;52.694;13.294;2022-11-21T05:50:00;20.27;;;14.70;;
18576;SDS011;9418;52.694;13.294;2022-11-21T05:52:28;18.17;;;13.80;;
18576;SDS011;9418;52.694;13.294;2022-11-21T05:54:55;16.30;;;13.23;;
18576;SDS011;9418;52.694;13.294;2022-11-21T05:57:21;16.33;;;13.97;;
18576;SDS011;9418;52.694;13.294;2022-11-21T05:59:48;15.70;;;13.17;;
18576;SDS011;9418;52.694;13.294;2022-11-21T06:02:14;16.17;;;14.20;;
18576;SDS011;9418;52.694;13.294;2022-11-21T06:04:59;16.00;;;13.13;;
18576;SDS011;9418;52.694;13.294;2022-11-21T06:07:25;16.90;;;13.57;;
18576;SDS011;9418;52.694;13.294;2022-11-21T06:09:53;17.80;;;13.70;;
18576;SDS011;9418;52.694;13.294;2022-11-21T06:12:20;15.73;;;13.70;;
18576;SDS011;9418;52.694;13.294;2022-11-21T06:14:46;20.00;;;14.67;;
18576;SDS011;9418;52.694;13.294;2022-11-21T06:17:13;18.40;;;14.10;;
18576;SDS011;9418;52.694;13.294;2022-11-21T06:19:39;14.63;;;11.97;;
18576;SDS011;9418;52.694;13.294;2022-11-21T06:22:06;17.53;;;13.13;;
18576;SDS011;9418;52.694;13.294;2022-11-21T06:24:32;17.60;;;14.50;;
18576;SDS011;9418;52.694;13.294;2022-11-21T06:27:00;16.93;;;14.23;;
18576;SDS011;9418;52.694;13.294;2022-11-21T06:29:27;20.80;;;14.93;;
18576;SDS011;9418;52.694;13.294;2022-11-21T06:31:53;21.20;;;14.23;;
18576;SDS011;9418;52.694;13.294;2022-11-21T06:34:20;17.37;;;14.33;;
18576;SDS011;9418;52.694;13.294;2022-11-21T06:36:46;20.77;;;15.93;;
18576;SDS011;9418;52.694;13.294;2022-11-21T06:39:14;18.50;;;14.90;;
18576;SDS011;9418;52.694;13.294;2022-11-21T06:41:41;21.40;;;16.43;;
18576;SDS011;9418;52.694;13.294;2022-11-21T06:44:09;23.17;;;16.07;;
18576;SDS011;9418;52.694;13.294;2022-11-21T06:46:35;21.37;;;15.87;;
18576;SDS011;9418;52.694;13.294;2022-11-21T06:49:02;26.07;;;17.00;;
18576;SDS011;9418;52.694;13.294;2022-11-21T06:51:29;29.17;;;18.53;;
18576;SDS011;9418;52.694;13.294;2022-11-21T06:53:56;32.83;;;18.80;;
18576;SDS011;9418;52.694;13.294;2022-11-21T06:56:23;24.23;;;17.60;;
18576;SDS011;9418;52.694;13.294;2022-11-21T06:58:51;24.07;;;18.13;;
18576;SDS011;9418;52.694;13.294;2022-11-21T07:01:19;29.77;;;19.53;;
18576;SDS011;9418;52.694;13.294;2022-11-21T07:03:45;30.47;;;19.70;;
18576;SDS011;9418;52.694;13.294;2022-11-21T07:06:12;27.63;;;18.57;;
18576;SDS011;9418;52.694;13.294;2022-11-21T07:08:39;29.43;;;20.17;;
18576;SDS011;9418;52.694;13.294;2022-11-21T07:11:07;26.67;;;18.60;;
18576;SDS011;9418;52.694;13.294;2022-11-21T07:13:35;29.40;;;20.20;;
18576;SDS011;9418;52.694;13.294;2022-11-21T07:16:01;31.43;;;20.60;;
18576;SDS011;9418;52.694;13.294;2022-11-21T07:18:30;32.20;;;19.97;;
18576;SDS011;9418;52.694;13.294;2022-11-21T07:20:57;22.70;;;15.97;;
18576;SDS011;9418;52.694;13.294;2022-11-21T07:23:24;23.20;;;17.77;;
18576;SDS011;9418;52.694;13.294;2022-11-21T07:25:51;33.00;;;19.10;;
18576;SDS011;9418;52.694;13.294;2022-11-21T07:28:17;38.20;;;19.40;;
18576;SDS011;9418;52.694;13.294;2022-11-21T07:30:44;35.80;;;21.07;;
18576;SDS011;9418;52.694;13.294;2022-11-21T07:33:10;33.30;;;19.80;;
18576;SDS011;9418;52.694;13.294;2022-11-21T07:35:38;26.73;;;19.13;;
18576;SDS011;9418;52.694;13.294;2022-11-21T07:38:06;30.83;;;22.10;;
18576;SDS011;9418;52.694;13.294;2022-11-21T07:40:33;30.83;;;20.60;;
18576;SDS011;9418;52.694;13.294;2022-11-21T07:43:00;29.33;;;20.70;;
18576;SDS011;9418;52.694;13.294;2022-11-21T07:45:27;41.30;;;25.40;;
18576;SDS011;9418;52.694;13.294;2022-11-21T07:47:57;32.83;;;23.33;;
18576;SDS011;9418;52.694;13.294;2022-11-21T07:50:24;27.07;;;19.20;;
18576;SDS011;9418;52.694;13.294;2022-11-21T07:52:56;29.30;;;20.73;;
18576;SDS011;9418;52.694;13.294;2022-11-21T07:55:24;26.17;;;18.43;;
18576;SDS011;9418;52.694;13.294;2022-11-21T07:57:56;30.90;;;19.10;;
18576;SDS011;9418;52.694;13.294;2022-11-21T08:00:24;25.73;;;17.80;;
18576;SDS011;9418;52.694;13.294;2022-11-21T08:02:51;21.17;;;15.67;;
18576;SDS011;9418;52.694;13.294;2022-11-21T08:05:17;23.37;;;15.40;;
18576;SDS011;9418;52.694;13.294;2022-11-21T08:07:44;22.83;;;16.00;;
18576;SDS011;9418;52.694;13.294;2022-11-21T08:10:12;30.23;;;16.07;;
18576;SDS011;9418;52.694;13.294;2022-11-21T08:12:39;18.97;;;14.63;;
18576;SDS011;9418;52.694;13.294;2022-11-21T08:15:05;20.83;;;15.20;;
18576;SDS011;9418;52.694;13.294;2022-11-21T08:17:32;26.50;;;15.73;;
18576;SDS011;9418;52.694;13.294;2022-11-21T08:19:59;21.33;;;15.97;;
18576;SDS011;9418;52.694;13.294;2022-11-21T08:22:26;21.83;;;16.80;;
18576;SDS011;9418;52.694;13.294;2022-11-21T08:24:53;19.10;;;15.67;;
18576;SDS011;9418;52.694;13.294;2022-11-21T08:27:21;18.60;;;14.97;;
18576;SDS011;9418;52.694;13.294;2022-11-21T08:29:48;23.43;;;15.77;;
18576;SDS011;9418;52.694;13.294;2022-11-21T08:32:15;25.53;;;16.30;;
18576;SDS011;9418;52.694;13.294;2022-11-21T08:34:42;19.47;;;15.10;;
18576;SDS011;9418;52.694;13.294;2022-11-21T08:37:08;24.90;;;13.07;;
18576;SDS011;9418;52.694;13.294;2022-11-21T08:39:35;16.40;;;12.97;;
18576;SDS011;9418;52.694;13.294;2022-11-21T08:42:01;19.70;;;13.07;;
18576;SDS011;9418;52.694;13.294;2022-11-21T08:44:29;17.07;;;12.13;;
18576;SDS011;9418;52.694;13.294;2022-11-21T08:46:57;15.90;;;11.50;;
18576;SDS011;9418;52.694;13.294;2022-11-21T08:49:24;15.57;;;12.20;;
18576;SDS011;9418;52.694;13.294;2022-11-21T08:51:51;15.03;;;11.90;;
18576;SDS011;9418;52.694;13.294;2022-11-21T08:54:18;19.13;;;12.90;;
18576;SDS011;9418;52.694;13.294;2022-11-21T08:56:46;16.90;;;12.43;;
18576;SDS011;9418;52.694;13.294;2022-11-21T08:59:13;15.63;;;13.00;;
18576;SDS011;9418;52.694;13.294;2022-11-21T09:01:41;17.60;;;12.43;;
18576;SDS011;9418;52.694;13.294;2022-11-21T09:04:08;21.30;;;12.13;;
18576;SDS011;9418;52.694;13.294;2022-11-21T09:06:36;20.60;;;13.90;;
18576;SDS011;9418;52.694;13.294;2022-11-21T09:09:03;16.67;;;13.90;;
18576;SDS011;9418;52.694;13.294;2022-11-21T09:11:30;16.13;;;11.23;;
18576;SDS011;9418;52.694;13.294;2022-11-21T09:13:57;27.40;;;14.10;;
18576;SDS011;9418;52.694;13.294;2022-11-21T09:16:43;17.03;;;13.03;;
18576;SDS011;9418;52.694;13.294;2022-11-21T09:19:27;18.30;;;13.33;;
18576;SDS011;9418;52.694;13.294;2022-11-21T09:21:54;14.87;;;12.27;;
18576;SDS011;9418;52.694;13.294;2022-11-21T09:24:21;18.43;;;14.00;;
18576;SDS011;9418;52.694;13.294;2022-11-21T09:26:47;34.70;;;22.90;;
18576;SDS011;9418;52.694;13.294;2022-11-21T09:29:14;28.13;;;21.00;;
18576;SDS011;9418;52.694;13.294;2022-11-21T09:31:40;19.83;;;16.27;;
18576;SDS011;9418;52.694;13.294;2022-11-21T09:34:09;21.37;;;14.40;;
18576;SDS011;9418;52.694;13.294;2022-11-21T09:36:35;17.03;;;13.80;;
18576;SDS011;9418;52.694;13.294;2022-11-21T09:39:02;17.50;;;14.33;;
18576;SDS011;9418;52.694;13.294;2022-11-21T09:41:31;14.77;;;12.93;;
18576;SDS011;9418;52.694;13.294;2022-11-21T09:44:20;16.70;;;12.60;;
18576;SDS011;9418;52.694;13.294;2022-11-21T09:47:08;17.03;;;13.00;;
18576;SDS011;9418;52.694;13.294;2022-11-21T09:49:50;15.87;;;12.47;;
18576;SDS011;9418;52.694;13.294;2022-11-21T09:52:21;19.10;;;14.50;;
18576;SDS011;9418;52.694;13.294;2022-11-21T09:54:52;16.80;;;13.80;;
18576;SDS011;9418;52.694;13.294;2022-11-21T09:57:23;15.07;;;12.47;;
18576;SDS011;9418;52.694;13.294;2022-11-21T09:59:51;16.63;;;13.53;;
18576;SDS011;9418;52.694;13.294;2022-11-21T10:02:19;18.00;;;13.37;;
18576;SDS011;9418;52.694;13.294;2022-11-21T10:04:49;16.67;;;13.53;;
18576;SDS011;9418;52.694;13.294;2022-11-21T10:07:19;19.87;;;15.20;;
18576;SDS011;9418;52.694;13.294;2022-11-21T10:09:54;21.73;;;16.43;;
18576;SDS011;9418;52.694;13.294;2022-11-21T10:12:31;17.47;;;13.97;;
18576;SDS011;9418;52.694;13.294;2022-11-21T10:15:03;18.23;;;14.13;;
18576;SDS011;9418;52.694;13.294;2022-11-21T10:17:47;16.87;;;13.60;;
18576;SDS011;9418;52.694;13.294;2022-11-21T10:20:32;18.93;;;14.97;;
18576;SDS011;9418;52.694;13.294;2022-11-21T10:23:17;19.57;;;14.00;;
18576;SDS011;9418;52.694;13.294;2022-11-21T10:26:01;17.70;;;13.40;;
18576;SDS011;9418;52.694;13.294;2022-11-21T10:28:37;17.07;;;14.57;;
18576;SDS011;9418;52.694;13.294;2022-11-21T10:31:09;17.37;;;13.83;;
18576;SDS011;9418;52.694;13.294;2022-11-21T10:33:38;20.10;;;15.53;;
18576;SDS011;9418;52.694;13.294;2022-11-21T10:36:08;18.87;;;13.73;;
18576;SDS011;9418;52.694;13.294;2022-11-21T10:38:41;22.73;;;17.13;;
18576;SDS011;9418;52.694;13.294;2022-11-21T10:41:11;18.20;;;15.37;;
18576;SDS011;9418;52.694;13.294;2022-11-21T10:43:42;16.77;;;13.87;;
18576;SDS011;9418;52.694;13.294;2022-11-21T10:46:32;21.27;;;14.60;;
18576;SDS011;9418;52.694;13.294;2022-11-21T10:48:59;23.80;;;14.23;;
18576;SDS011;9418;52.694;13.294;2022-11-21T10:51:33;17.33;;;13.37;;
18576;SDS011;9418;52.694;13.294;2022-11-21T10:54:05;16.37;;;13.20;;
18576;SDS011;9418;52.694;13.294;2022-11-21T10:56:51;16.70;;;13.07;;
18576;SDS011;9418;52.694;13.294;2022-11-21T10:59:21;18.50;;;13.60;;
18576;SDS011;9418;52.694;13.294;2022-11-21T11:01:53;19.30;;;14.40;;
18576;SDS011;9418;52.694;13.294;2022-11-21T11:04:21;17.03;;;13.10;;
18576;SDS011;9418;52.694;13.294;2022-11-21T11:06:49;15.90;;;13.30;;
18576;SDS011;9418;52.694;13.294;2022-11-21T11:09:26;13.23;;;11.83;;
18576;SDS011;9418;52.694;13.294;2022-11-21T11:12:15;18.40;;;11.93;;
18576;SDS011;9418;52.694;13.294;2022-11-21T11:15:15;16.80;;;13.30;;
18576;SDS011;9418;52.694;13.294;2022-11-21T11:17:50;14.87;;;11.73;;
18576;SDS011;9418;52.694;13.294;2022-11-21T11:20:33;14.83;;;11.53;;
18576;SDS011;9418;52.694;13.294;2022-11-21T11:23:16;14.70;;;11.57;;
18576;SDS011;9418;52.694;13.294;2022-11-21T11:25:49;14.97;;;11.90;;
18576;SDS011;9418;52.694;13.294;2022-11-21T11:28:17;16.47;;;11.17;;
18576;SDS011;9418;52.694;13.294;2022-11-21T11:30:44;12.97;;;11.07;;
18576;SDS011;9418;52.694;13.294;2022-11-21T11:33:27;14.60;;;11.50;;
18576;SDS011;9418;52.694;13.294;2022-11-21T11:35:55;11.90;;;10.23;;
18576;SDS011;9418;52.694;13.294;2022-11-21T11:38:32;11.10;;;9.47;;
18576;SDS011;9418;52.694;13.294;2022-11-21T11:40:59;17.73;;;10.70;;
18576;SDS011;9418;52.694;13.294;2022-11-21T11:43:36;13.20;;;11.10;;
18576;SDS011;9418;52.694;13.294;2022-11-21T11:46:32;13.50;;;10.17;;
18576;SDS011;9418;52.694;13.294;2022-11-21T11:49:26;14.50;;;11.83;;
18576;SDS011;9418;52.694;13.294;2022-11-21T11:52:17;11.70;;;10.03;;
18576;SDS011;9418;52.694;13.294;2022-11-21T11:54:50;12.03;;;9.50;;
18576;SDS011;9418;52.694;13.294;2022-11-21T11:57:25;13.60;;;10.73;;
18576;SDS011;9418;52.694;13.294;2022-11-21T11:59:57;12.07;;;10.03;;
18576;SDS011;9418;52.694;13.294;2022-11-21T12:02:32;15.00;;;11.00;;
18576;SDS011;9418;52.694;13.294;2022-11-21T12:05:10;15.23;;;11.53;;
18576;SDS011;9418;52.694;13.294;2022-11-21T12:07:43;12.90;;;10.90;;
18576;SDS011;9418;52.694;13.294;2022-11-21T12:10:19;12.30;;;10.40;;
18576;SDS011;9418;52.694;13.294;2022-11-21T12:12:51;12.73;;;9.87;;
18576;SDS011;9418;52.694;13.294;2022-11-21T12:15:29;13.53;;;10.37;;
18576;SDS011;9418;52.694;13.294;2022-11-21T12:18:19;13.07;;;9.87;;
18576;SDS011;9418;52.694;13.294;2022-11-21T12:20:56;13.10;;;10.37;;
18576;SDS011;9418;52.694;13.294;2022-11-21T12:23:29;12.60;;;9.70;;
18576;SDS011;9418;52.694;13.294;2022-11-21T12:26:04;13.33;;;9.97;;
18576;SDS011;9418;52.694;13.294;2022-11-21T12:28:42;16.70;;;11.57;;
18576;SDS011;9418;52.694;13.294;2022-11-21T12:31:17;10.90;;;9.67;;
18576;SDS011;9418;52.694;13.294;2022-11-21T12:33:54;11.97;;;9.90;;
18576;SDS011;9418;52.694;13.294;2022-11-21T12:36:27;11.13;;;9.90;;
18576;SDS011;9418;52.694;13.294;2022-11-21T12:39:10;10.73;;;9.00;;
18576;SDS011;9418;52.694;13.294;2022-11-21T12:41:48;10.87;;;9.50;;
18576;SDS011;9418;52.694;13.294;2022-11-21T12:44:48;16.10;;;11.30;;
18576;SDS011;9418;52.694;13.294;2022-11-21T12:47:28;15.60;;;10.87;;
18576;SDS011;9418;52.694;13.294;2022-11-21T12:50:25;18.43;;;12.60;;
18576;SDS011;9418;52.694;13.294;2022-11-21T12:53:16;14.40;;;10.00;;
18576;SDS011;9418;52.694;13.294;2022-11-21T12:56:07;11.13;;;9.00;;
18576;SDS011;9418;52.694;13.294;2022-11-21T12:58:40;9.77;;;8.77;;
18576;SDS011;9418;52.694;13.294;2022-11-21T13:01:15;12.97;;;10.00;;
18576;SDS011;9418;52.694;13.294;2022-11-21T13:03:49;9.47;;;7.60;;
18576;SDS011;9418;52.694;13.294;2022-11-21T13:06:22;11.23;;;9.40;;
18576;SDS011;9418;52.694;13.294;2022-11-21T13:08:52;11.53;;;8.30;;
18576;SDS011;9418;52.694;13.294;2022-11-21T13:11:23;11.53;;;9.17;;
18576;SDS011;9418;52.694;13.294;2022-11-21T13:14:16;11.17;;;9.50;;
18576;SDS011;9418;52.694;13.294;2022-11-21T13:16:48;9.13;;;8.23;;
18576;SDS011;9418;52.694;13.294;2022-11-21T13:19:21;11.73;;;8.43;;
18576;SDS011;9418;52.694;13.294;2022-11-21T13:21:52;13.33;;;9.00;;
18576;SDS011;9418;52.694;13.294;2022-11-21T13:27:27;12.70;;;10.80;;
18576;SDS011;9418;52.694;13.294;2022-11-21T13:32:43;10.40;;;9.33;;
18576;SDS011;9418;52.694;13.294;2022-11-21T13:38:24;9.97;;;7.70;;
18576;SDS011;9418;52.694;13.294;2022-11-21T13:40:50;11.33;;;9.47;;
18576;SDS011;9418;52.694;13.294;2022-11-21T13:43:35;8.37;;;7.53;;
18576;SDS011;9418;52.694;13.294;2022-11-21T13:46:03;9.13;;;8.23;;
18576;SDS011;9418;52.694;13.294;2022-11-21T13:48:33;10.57;;;8.67;;
18576;SDS011;9418;52.694;13.294;2022-11-21T13:54:18;11.20;;;9.30;;
18576;SDS011;9418;52.694;13.294;2022-11-21T13:57:01;9.63;;;8.50;;
18576;SDS011;9418;52.694;13.294;2022-11-21T13:59:43;10.10;;;9.10;;
18576;SDS011;9418;52.694;13.294;2022-11-21T14:02:34;11.70;;;8.70;;
18576;SDS011;9418;52.694;13.294;2022-11-21T14:05:26;12.43;;;9.00;;
18576;SDS011;9418;52.694;13.294;2022-11-21T14:08:11;11.63;;;9.70;;
18576;SDS011;9418;52.694;13.294;2022-11-21T14:10:41;12.20;;;9.27;;
18576;SDS011;9418;52.694;13.294;2022-11-21T14:13:13;11.23;;;9.10;;
18576;SDS011;9418;52.694;13.294;2022-11-21T14:15:48;12.20;;;8.60;;
18576;SDS011;9418;52.694;13.294;2022-11-21T14:18:24;12.03;;;8.90;;
18576;SDS011;9418;52.694;13.294;2022-11-21T14:20:52;13.43;;;8.63;;
18576;SDS011;9418;52.694;13.294;2022-11-21T14:23:21;11.33;;;9.30;;
18576;SDS011;9418;52.694;13.294;2022-11-21T14:25:51;11.17;;;9.00;;
18576;SDS011;9418;52.694;13.294;2022-11-21T14:28:21;12.00;;;10.10;;
18576;SDS011;9418;52.694;13.294;2022-11-21T14:30:54;10.23;;;9.23;;
18576;SDS011;9418;52.694;13.294;2022-11-21T14:33:25;12.80;;;9.10;;
18576;SDS011;9418;52.694;13.294;2022-11-21T14:35:54;12.40;;;9.77;;
18576;SDS011;9418;52.694;13.294;2022-11-21T14:38:23;11.83;;;10.37;;
18576;SDS011;9418;52.694;13.294;2022-11-21T14:43:59;11.33;;;9.17;;
18576;SDS011;9418;52.694;13.294;2022-11-21T14:46:41;11.63;;;9.93;;
18576;SDS011;9418;52.694;13.294;2022-11-21T14:49:15;14.27;;;10.20;;
18576;SDS011;9418;52.694;13.294;2022-11-21T14:51:45;12.13;;;9.67;;
18576;SDS011;9418;52.694;13.294;2022-11-21T14:54:14;13.30;;;11.13;;
18576;SDS011;9418;52.694;13.294;2022-11-21T14:56:45;23.40;;;11.13;;